Time;durP1;ratioP1;P1;durP2;ratioP2;P2;SDS_P1;SDS_P2;PMS_P1;PMS_P2;Temp;Humidity;BMP_temperature;BMP_pressure;BME280_temperature;BME280_humidity;BME280_pressure;Samples;Min_cycle;Max_cycle;Signal;HPM_P1;HPM_P2
2022/02/12 00:00:47;;;;;;;11.00;7.35;;;;;;;2.67;100.00;97940.34;4989129;28;20154;-51
2022/02/12 00:03:17;;;;;;;12.88;7.07;;;;;;;2.85;100.00;97937.00;4960832;28;20090;-52
2022/02/12 00:05:46;;;;;;;9.95;7.05;;;;;;;2.84;100.00;97940.53;4970004;28;20097;-50
2022/02/12 00:08:14;;;;;;;9.70;6.97;;;;;;;2.97;100.00;97938.28;4966628;28;20066;-50
2022/02/12 00:10:42;;;;;;;10.60;7.43;;;;;;;3.08;100.00;97935.25;4974185;28;20074;-56
2022/02/12 00:13:11;;;;;;;8.95;7.10;;;;;;;2.96;100.00;97927.91;4974699;28;20677;-52
2022/02/12 00:15:42;;;;;;;11.05;8.05;;;;;;;2.93;100.00;97928.06;4963116;28;20058;-50
2022/02/12 00:18:11;;;;;;;11.07;7.57;;;;;;;2.79;100.00;97924.25;4967723;28;20090;-59
2022/02/12 00:20:41;;;;;;;8.82;7.40;;;;;;;2.87;100.00;97921.34;4961497;28;20551;-56
2022/02/12 00:23:09;;;;;;;11.23;7.85;;;;;;;2.82;100.00;97913.72;4985751;28;20077;-49
2022/02/12 00:25:38;;;;;;;11.63;7.32;;;;;;;2.93;100.00;97915.88;4984690;28;20077;-54
2022/02/12 00:28:06;;;;;;;10.35;7.65;;;;;;;2.70;100.00;97916.78;4991284;28;20062;-53
2022/02/12 00:30:35;;;;;;;10.45;7.60;;;;;;;2.94;100.00;97919.34;4991812;28;20053;-54
2022/02/12 00:33:07;;;;;;;16.05;7.75;;;;;;;2.86;100.00;97922.25;4986040;28;20073;-48
2022/02/12 00:35:36;;;;;;;10.65;7.57;;;;;;;2.95;100.00;97914.03;4990061;28;20065;-47
2022/02/12 00:38:06;;;;;;;11.38;7.88;;;;;;;3.02;100.00;97912.88;4986989;28;20066;-50
2022/02/12 00:40:34;;;;;;;11.75;7.43;;;;;;;2.70;100.00;97905.53;4988917;28;20153;-52
2022/02/12 00:43:05;;;;;;;11.70;8.23;;;;;;;2.96;100.00;97907.06;4990099;28;20470;-52
2022/02/12 00:45:33;;;;;;;12.98;8.32;;;;;;;2.70;100.00;97908.13;4994557;28;20088;-53
2022/02/12 00:48:01;;;;;;;12.57;7.97;;;;;;;2.91;100.00;97904.66;4989001;28;20086;-50
2022/02/12 00:50:30;;;;;;;11.05;7.40;;;;;;;2.81;100.00;97914.59;4989232;28;20558;-53
2022/02/12 00:52:58;;;;;;;12.98;8.23;;;;;;;2.91;100.00;97903.81;4985370;28;20073;-53
2022/02/12 00:55:28;;;;;;;10.07;7.93;;;;;;;2.40;100.00;97899.75;4990663;28;20074;-48
2022/02/12 00:57:57;;;;;;;11.88;8.40;;;;;;;2.42;100.00;97909.19;4994705;28;20070;-50
2022/02/12 01:00:25;;;;;;;12.85;8.48;;;;;;;2.54;100.00;97902.66;4988001;28;20077;-48
2022/02/12 01:02:54;;;;;;;12.65;8.27;;;;;;;2.50;100.00;97907.13;4989676;28;20653;-51
2022/02/12 01:05:22;;;;;;;11.40;7.95;;;;;;;2.32;100.00;97903.50;4994320;28;20584;-57
2022/02/12 01:07:50;;;;;;;11.98;8.70;;;;;;;2.40;100.00;97908.41;4988795;28;20069;-54
2022/02/12 01:10:19;;;;;;;17.02;9.15;;;;;;;2.42;100.00;97906.59;4992063;28;20062;-55
2022/02/12 01:12:49;;;;;;;12.75;8.63;;;;;;;2.14;100.00;97904.19;4995202;28;20077;-49
2022/02/12 01:15:17;;;;;;;13.65;9.00;;;;;;;1.88;100.00;97903.38;4995390;28;20085;-50
2022/02/12 01:17:45;;;;;;;15.15;9.35;;;;;;;1.87;100.00;97898.25;4993525;28;20734;-47
2022/02/12 01:20:16;;;;;;;13.20;9.15;;;;;;;2.04;100.00;97903.69;4989331;28;20113;-49
2022/02/12 01:22:46;;;;;;;15.82;9.82;;;;;;;1.92;100.00;97903.28;4991436;28;20049;-48
2022/02/12 01:25:14;;;;;;;11.90;9.10;;;;;;;2.07;100.00;97900.97;4992526;28;20076;-52
2022/02/12 01:27:43;;;;;;;13.73;8.80;;;;;;;1.75;100.00;97903.88;4991813;28;20082;-50
2022/02/12 01:30:14;;;;;;;15.10;9.00;;;;;;;1.78;100.00;97895.97;4990564;28;20089;-54
2022/02/12 01:32:42;;;;;;;11.95;8.80;;;;;;;1.85;100.00;97900.03;4967986;28;20178;-49
2022/02/12 01:35:11;;;;;;;12.98;8.77;;;;;;;1.78;100.00;97891.59;4969630;28;20073;-53
2022/02/12 01:37:41;;;;;;;15.45;9.32;;;;;;;1.79;100.00;97897.66;4979645;28;20525;-55
2022/02/12 01:40:11;;;;;;;11.20;8.50;;;;;;;1.80;100.00;97886.38;4996936;28;20076;-47
2022/02/12 01:42:39;;;;;;;11.20;8.30;;;;;;;1.61;100.00;97887.00;4987580;28;20055;-48
2022/02/12 01:45:08;;;;;;;11.02;8.52;;;;;;;1.80;100.00;97886.38;4998040;28;20489;-51
2022/02/12 01:47:38;;;;;;;13.13;8.32;;;;;;;1.47;100.00;97878.00;4990615;28;20524;-52
2022/02/12 01:50:07;;;;;;;10.52;8.02;;;;;;;1.50;100.00;97875.31;4988848;28;20066;-57
2022/02/12 01:52:37;;;;;;;11.63;7.88;;;;;;;1.30;100.00;97886.38;4983044;28;20097;-47
2022/02/12 01:55:07;;;;;;;12.18;8.75;;;;;;;1.45;100.00;97890.22;4987774;28;20536;-53
2022/02/12 01:57:35;;;;;;;13.60;8.53;;;;;;;1.51;100.00;97882.19;4971094;28;20612;-54
2022/02/12 02:00:04;;;;;;;11.95;8.70;;;;;;;1.43;100.00;97867.72;4996553;28;21055;-53
2022/02/12 02:02:33;;;;;;;10.68;8.35;;;;;;;1.45;100.00;97865.06;4991367;28;20066;-50
2022/02/12 02:05:03;;;;;;;13.27;8.80;;;;;;;1.53;100.00;97865.63;4975391;28;20556;-56
2022/02/12 02:07:31;;;;;;;12.48;8.90;;;;;;;1.43;100.00;97872.06;4983340;28;20077;-52
2022/02/12 02:10:00;;;;;;;12.20;8.35;;;;;;;1.54;100.00;97867.34;4987574;28;20062;-54
2022/02/12 02:12:29;;;;;;;14.25;8.57;;;;;;;1.43;100.00;97861.66;4991335;28;20077;-46
2022/02/12 02:14:57;;;;;;;15.00;8.63;;;;;;;1.32;100.00;97861.19;4990820;28;20112;-52
2022/02/12 02:17:25;;;;;;;14.02;9.10;;;;;;;1.27;100.00;97869.13;4990644;28;20069;-50
2022/02/12 02:19:54;;;;;;;12.77;8.98;;;;;;;1.41;100.00;97860.84;4987901;28;20081;-53
2022/02/12 02:22:29;;;;;;;13.40;8.75;;;;;;;1.32;100.00;97856.84;4998394;28;20061;-55
2022/02/12 02:24:59;;;;;;;14.20;8.82;;;;;;;1.07;100.00;97853.41;4987687;28;20521;-51
2022/02/12 02:27:28;;;;;;;11.40;8.60;;;;;;;1.16;100.00;97864.31;4993708;28;20462;-55
2022/02/12 02:29:57;;;;;;;13.18;8.10;;;;;;;1.28;100.00;97864.81;4994987;28;20787;-53
2022/02/12 02:32:26;;;;;;;13.38;8.55;;;;;;;1.21;100.00;97866.78;4985757;28;20069;-52
2022/02/12 02:34:55;;;;;;;9.90;8.55;;;;;;;1.28;100.00;97865.66;4989585;28;20064;-51
2022/02/12 02:37:25;;;;;;;11.88;8.50;;;;;;;1.17;100.00;97863.44;4990256;28;20082;-50
2022/02/12 02:39:53;;;;;;;13.20;8.95;;;;;;;1.17;100.00;97860.84;4993211;28;20062;-56
2022/02/12 02:42:23;;;;;;;10.68;8.60;;;;;;;1.22;100.00;97859.81;4993069;28;20070;-55
2022/02/12 02:44:51;;;;;;;10.63;8.63;;;;;;;1.15;100.00;97860.03;4991671;28;21382;-58
2022/02/12 02:47:40;;;;;;;10.18;8.60;;;;;;;1.19;100.00;97856.41;4991876;28;20081;-53
2022/02/12 02:58:27;;;;;;;14.00;8.93;;;;;;;1.11;100.00;97855.84;4989553;28;20070;-48
2022/02/12 03:00:56;;;;;;;12.90;8.82;;;;;;;1.05;100.00;97848.25;4989246;28;20077;-51
2022/02/12 03:03:25;;;;;;;11.75;9.10;;;;;;;0.92;100.00;97852.16;4989245;28;20069;-55
2022/02/12 03:05:54;;;;;;;11.20;8.63;;;;;;;0.78;100.00;97850.00;4987123;28;20087;-53
2022/02/12 03:08:22;;;;;;;15.13;9.35;;;;;;;0.99;100.00;97851.03;4968154;28;20067;-53
2022/02/12 03:10:51;;;;;;;12.95;9.00;;;;;;;0.98;100.00;97845.91;4978506;28;20062;-55
2022/02/12 03:13:19;;;;;;;10.95;8.60;;;;;;;0.75;100.00;97847.50;4986718;28;20493;-55
2022/02/12 03:15:49;;;;;;;16.95;9.15;;;;;;;0.84;100.00;97836.84;4984900;28;20095;-53
2022/02/12 03:18:18;;;;;;;12.88;9.50;;;;;;;0.98;100.00;97833.78;4990767;28;20700;-51
2022/02/12 03:20:46;;;;;;;10.93;8.65;;;;;;;0.95;100.00;97832.13;4993038;28;20069;-53
2022/02/12 03:23:16;;;;;;;14.38;8.65;;;;;;;0.89;100.00;97828.88;4986311;28;20058;-51
2022/02/12 03:25:45;;;;;;;12.57;8.93;;;;;;;0.68;100.00;97835.63;4996300;28;20173;-52
2022/02/12 03:28:13;;;;;;;11.88;8.50;;;;;;;0.82;100.00;97830.81;4991976;28;20520;-49
2022/02/12 03:30:45;;;;;;;11.02;8.98;;;;;;;0.82;100.00;97827.38;4991321;28;20081;-49
2022/02/12 03:33:16;;;;;;;14.07;8.50;;;;;;;0.76;100.00;97831.06;4991352;28;20068;-49
2022/02/12 03:35:45;;;;;;;9.68;8.20;;;;;;;0.84;100.00;97826.44;4992728;28;20723;-53
2022/02/12 03:38:20;;;;;;;10.60;8.40;;;;;;;0.47;100.00;97832.81;4990840;28;20082;-53
2022/02/12 03:40:51;;;;;;;12.23;8.73;;;;;;;0.46;100.00;97830.28;4988328;28;20524;-53
2022/02/12 03:43:19;;;;;;;12.05;9.13;;;;;;;0.64;100.00;97832.28;4987405;28;20066;-50
2022/02/12 03:45:48;;;;;;;13.23;9.10;;;;;;;0.52;100.00;97840.47;4988728;28;20072;-51
2022/02/12 03:48:18;;;;;;;16.77;9.35;;;;;;;0.60;100.00;97833.28;4989582;28;20522;-52
2022/02/12 03:50:46;;;;;;;10.40;8.68;;;;;;;0.63;100.00;97833.19;4982394;28;20096;-58
2022/02/12 03:53:15;;;;;;;11.02;8.95;;;;;;;0.64;100.00;97826.25;4992831;28;20483;-51
2022/02/12 03:55:43;;;;;;;12.57;8.75;;;;;;;0.56;100.00;97829.09;4984821;28;20070;-50
2022/02/12 03:58:13;;;;;;;10.90;8.70;;;;;;;0.59;100.00;97826.41;4991162;28;20100;-55
2022/02/12 04:00:43;;;;;;;10.18;8.73;;;;;;;0.59;100.00;97822.97;4989053;28;20666;-54
2022/02/12 04:03:12;;;;;;;10.00;8.40;;;;;;;0.56;100.00;97830.84;4993372;28;20069;-51
2022/02/12 04:05:43;;;;;;;10.48;8.73;;;;;;;0.51;100.00;97827.53;4983802;28;20084;-50
2022/02/12 04:08:17;;;;;;;9.55;8.57;;;;;;;0.31;100.00;97822.97;4990205;28;20080;-54
2022/02/12 04:10:47;;;;;;;10.95;8.90;;;;;;;0.20;100.00;97825.91;4989626;28;20152;-58
2022/02/12 04:13:15;;;;;;;12.10;8.25;;;;;;;-0.14;100.00;97824.31;4985792;28;20069;-51
2022/02/12 04:15:44;;;;;;;14.13;9.05;;;;;;;-0.34;100.00;97824.94;4983355;28;25614;-50
2022/02/12 04:18:13;;;;;;;11.57;8.60;;;;;;;-0.25;100.00;97824.63;4962058;28;20086;-53
2022/02/12 04:20:43;;;;;;;13.05;9.52;;;;;;;-0.02;100.00;97821.38;4962922;28;20063;-55
2022/02/12 04:23:12;;;;;;;11.25;9.32;;;;;;;-0.23;100.00;97824.63;4982471;28;20046;-58
2022/02/12 04:25:40;;;;;;;13.27;9.70;;;;;;;0.11;100.00;97816.69;4989854;28;20532;-56
2022/02/12 04:28:10;;;;;;;11.73;9.57;;;;;;;0.16;100.00;97819.97;4987460;28;20064;-50
2022/02/12 04:30:39;;;;;;;13.98;9.13;;;;;;;0.25;100.00;97810.22;4988170;28;20078;-55
2022/02/12 04:33:09;;;;;;;15.75;9.43;;;;;;;0.25;100.00;97805.03;4990473;28;20074;-54
2022/02/12 04:35:38;;;;;;;15.68;9.57;;;;;;;0.22;100.00;97806.81;4987480;28;20523;-50
2022/02/12 04:38:16;;;;;;;11.48;9.30;;;;;;;0.16;100.00;97807.00;4999038;28;20077;-51
2022/02/12 04:40:44;;;;;;;12.45;8.93;;;;;;;0.14;100.00;97802.78;4992409;28;20061;-52
2022/02/12 04:43:13;;;;;;;13.10;9.40;;;;;;;-0.02;100.00;97792.00;4987920;28;20577;-53
2022/02/12 04:45:41;;;;;;;16.55;9.52;;;;;;;-0.21;100.00;97780.47;4991332;28;20069;-52
2022/02/12 04:48:10;;;;;;;12.55;9.32;;;;;;;-0.27;100.00;97782.38;4998472;28;20788;-48
2022/02/12 04:50:38;;;;;;;12.98;8.88;;;;;;;-0.11;100.00;97782.75;4991150;28;20054;-50
2022/02/12 04:53:06;;;;;;;13.23;9.35;;;;;;;-0.04;100.00;97789.44;4991338;28;20452;-54
2022/02/12 04:55:36;;;;;;;15.20;9.00;;;;;;;-0.26;100.00;97781.47;4997679;28;20061;-55
2022/02/12 04:58:05;;;;;;;11.10;8.93;;;;;;;-0.12;100.00;97770.69;4989818;28;20062;-55
2022/02/12 05:00:34;;;;;;;11.57;9.48;;;;;;;-0.12;100.00;97770.69;4986252;28;20081;-52
2022/02/12 05:03:03;;;;;;;15.52;9.70;;;;;;;-0.15;100.00;97764.75;4997612;28;20081;-56
2022/02/12 05:05:31;;;;;;;12.77;9.45;;;;;;;-0.15;100.00;97773.38;4998729;28;20065;-51
2022/02/12 05:08:00;;;;;;;13.82;9.50;;;;;;;-0.45;100.00;97777.72;4985482;28;20073;-57
2022/02/12 05:10:29;;;;;;;10.57;9.05;;;;;;;-0.38;100.00;97783.56;4990781;28;20081;-53
2022/02/12 05:12:59;;;;;;;13.18;9.55;;;;;;;-0.55;100.00;97782.34;4995679;28;20449;-54
2022/02/12 05:15:27;;;;;;;;;;;;;;;-0.50;100.00;97782.19;4991558;28;20070;-54
2022/02/12 05:17:56;;;;;;;12.68;8.98;;;;;;;-0.59;100.00;97780.69;4991955;28;19965;-50
2022/02/12 05:20:24;;;;;;;15.68;9.45;;;;;;;-0.59;100.00;97791.06;4997714;28;20669;-52
2022/02/12 05:22:53;;;;;;;10.48;9.05;;;;;;;-0.45;100.00;97782.06;4993269;28;20081;-56
2022/02/12 05:25:21;;;;;;;12.77;9.32;;;;;;;-0.42;100.00;97769.00;4995368;28;20264;-51
2022/02/12 05:27:51;;;;;;;14.68;9.52;;;;;;;-0.43;100.00;97778.53;4988091;28;20467;-57
2022/02/12 05:30:20;;;;;;;12.10;9.27;;;;;;;-0.69;100.00;97770.66;4996366;28;20065;-55
2022/02/12 05:32:49;;;;;;;12.45;10.02;;;;;;;-1.03;100.00;97771.59;4968272;28;20573;-51
2022/02/12 05:35:17;;;;;;;12.30;9.35;;;;;;;-0.76;100.00;97769.97;4978650;28;20515;-57
2022/02/12 05:37:46;;;;;;;11.88;9.77;;;;;;;-0.78;100.00;97764.84;4985029;28;23293;-53
2022/02/12 05:40:14;;;;;;;11.63;9.95;;;;;;;-0.96;100.00;97762.78;4980700;28;20074;-57
2022/02/12 05:42:43;;;;;;;15.98;9.73;;;;;;;-0.82;100.00;97758.06;4968659;28;20090;-54
2022/02/12 05:45:11;;;;;;;13.70;9.68;;;;;;;-0.69;100.00;97762.88;4966123;28;20090;-56
2022/02/12 05:47:41;;;;;;;13.00;9.77;;;;;;;-0.72;100.00;97758.66;4961342;28;20075;-54
2022/02/12 05:50:11;;;;;;;14.48;10.48;;;;;;;-0.74;100.00;97756.09;4986803;28;20069;-53
2022/02/12 05:52:39;;;;;;;19.05;10.60;;;;;;;-0.69;100.00;97755.09;4977016;28;20062;-54
2022/02/12 05:55:08;;;;;;;11.85;9.35;;;;;;;-0.64;100.00;97754.09;4969973;28;20077;-57
2022/02/12 05:57:37;;;;;;;16.52;9.10;;;;;;;-0.71;100.00;97755.16;4973113;28;20089;-55
2022/02/12 06:00:07;;;;;;;12.68;9.32;;;;;;;-0.75;100.00;97753.56;4968858;28;20417;-54
2022/02/12 06:02:36;;;;;;;10.73;9.35;;;;;;;-1.10;100.00;97764.88;4963430;28;20082;-50
2022/02/12 06:05:06;;;;;;;14.25;9.20;;;;;;;-1.06;100.00;97764.75;4963611;28;20089;-56
2022/02/12 06:07:35;;;;;;;13.32;9.30;;;;;;;-0.97;100.00;97759.31;4970069;28;20066;-55
2022/02/12 06:10:04;;;;;;;11.75;9.75;;;;;;;-0.90;100.00;97751.38;4968976;28;20081;-54
2022/02/12 06:12:32;;;;;;;11.65;9.07;;;;;;;-1.03;100.00;97753.47;4963714;28;20090;-53
2022/02/12 06:15:00;;;;;;;17.88;9.73;;;;;;;-1.36;100.00;97760.38;4967064;28;20077;-56
2022/02/12 06:17:29;;;;;;;23.38;15.70;;;;;;;-1.42;100.00;97763.97;4965726;28;20078;-50
2022/02/12 06:19:57;;;;;;;14.38;11.35;;;;;;;-1.48;100.00;97758.94;4965403;28;20074;-56
2022/02/12 06:22:28;;;;;;;13.52;10.02;;;;;;;-1.45;100.00;97753.69;4982514;28;20681;-56
2022/02/12 06:24:57;;;;;;;13.82;9.80;;;;;;;-1.40;100.00;97751.84;4988657;28;20084;-51
2022/02/12 06:27:26;;;;;;;14.02;10.88;;;;;;;-1.27;100.00;97747.22;4986493;28;20085;-57
2022/02/12 06:29:55;;;;;;;14.30;11.18;;;;;;;-1.37;100.00;97756.13;4995435;28;20081;-57
2022/02/12 06:32:23;;;;;;;16.23;11.60;;;;;;;-1.27;100.00;97748.06;4991682;28;20082;-51
2022/02/12 06:34:55;;;;;;;13.95;10.85;;;;;;;-0.90;100.00;97752.22;4988514;28;20066;-57
2022/02/12 06:37:23;;;;;;;14.95;11.02;;;;;;;-0.87;100.00;97753.88;4984678;28;20532;-54
2022/02/12 06:39:53;;;;;;;14.60;10.63;;;;;;;-0.80;100.00;97748.50;4990195;28;20535;-58
2022/02/12 06:42:21;;;;;;;17.33;11.60;;;;;;;-0.87;100.00;97744.38;4993483;28;20107;-58
2022/02/12 06:44:50;;;;;;;16.42;11.07;;;;;;;-0.75;100.00;97743.19;4984740;28;20591;-58
2022/02/12 06:47:18;;;;;;;15.27;10.60;;;;;;;-0.72;100.00;97737.94;4995851;28;20069;-57
2022/02/12 06:49:47;;;;;;;13.02;10.18;;;;;;;-0.77;100.00;97737.19;4985215;28;20509;-51
2022/02/12 06:52:15;;;;;;;17.23;10.45;;;;;;;-0.69;100.00;97744.75;4986215;28;20042;-55
2022/02/12 06:54:44;;;;;;;14.60;10.50;;;;;;;-0.80;100.00;97745.91;4990447;28;20082;-56
2022/02/12 06:57:13;;;;;;;15.90;10.55;;;;;;;-0.76;100.00;97746.66;4998812;28;20093;-59
2022/02/12 06:59:43;;;;;;;14.18;9.30;;;;;;;-0.82;100.00;97752.88;4987298;28;20454;-57
2022/02/12 07:02:11;;;;;;;11.77;9.60;;;;;;;-0.63;100.00;97754.94;4991487;28;20081;-54
2022/02/12 07:04:40;;;;;;;14.52;9.95;;;;;;;-0.60;100.00;97773.84;4991792;28;20543;-55
2022/02/12 07:07:08;;;;;;;12.25;9.50;;;;;;;-0.45;100.00;97771.69;4988368;28;20066;-57
2022/02/12 07:09:37;;;;;;;13.45;10.45;;;;;;;-0.38;100.00;97774.09;4989134;28;20057;-59
2022/02/12 07:12:06;;;;;;;14.52;10.80;;;;;;;-0.16;100.00;97763.91;4994750;28;20078;-53
2022/02/12 07:14:36;;;;;;;17.58;12.07;;;;;;;-0.44;100.00;97763.03;4990723;28;20065;-53
2022/02/12 07:17:04;;;;;;;17.92;11.85;;;;;;;0.07;100.00;97764.94;4990437;28;20092;-58
2022/02/12 07:19:34;;;;;;;14.95;11.02;;;;;;;-0.21;100.00;97759.75;4993090;28;20071;-59
2022/02/12 07:22:03;;;;;;;11.75;9.63;;;;;;;-0.18;100.00;97757.91;4982953;28;20576;-55
2022/02/12 07:24:32;;;;;;;14.52;10.32;;;;;;;-0.04;100.00;97757.47;4967998;28;20073;-58
2022/02/12 07:27:00;;;;;;;14.10;9.85;;;;;;;-0.13;100.00;97750.00;4969344;28;20524;-57
2022/02/12 07:29:28;;;;;;;14.43;11.25;;;;;;;0.23;100.00;97741.06;4963384;28;20450;-61
2022/02/12 07:31:58;;;;;;;16.50;11.00;;;;;;;0.39;100.00;97741.41;4986973;28;20070;-56
2022/02/12 07:34:27;;;;;;;17.30;10.95;;;;;;;0.65;100.00;97735.34;4989133;28;20061;-54
2022/02/12 07:36:55;;;;;;;15.00;11.40;;;;;;;0.53;100.00;97740.09;4984562;28;20077;-58
2022/02/12 07:39:25;;;;;;;14.82;9.95;;;;;;;0.86;100.00;97736.38;4990266;28;20082;-57
2022/02/12 07:41:53;;;;;;;13.17;10.10;;;;;;;0.89;100.00;97732.78;4965841;28;20550;-58
2022/02/12 07:44:22;;;;;;;11.77;9.55;;;;;;;0.91;100.00;97725.81;4969321;28;21015;-56
2022/02/12 07:46:50;;;;;;;17.00;10.35;;;;;;;0.94;100.00;97728.31;4984075;28;20437;-56
2022/02/12 07:49:20;;;;;;;15.38;10.63;;;;;;;0.79;100.00;97724.50;4978644;28;20066;-52
2022/02/12 07:51:49;;;;;;;17.90;10.77;;;;;;;1.09;100.00;97722.53;4971737;28;20531;-54
2022/02/12 07:54:17;;;;;;;21.48;10.77;;;;;;;1.04;100.00;97721.88;4987009;28;20496;-51
2022/02/12 07:56:45;;;;;;;15.63;10.02;;;;;;;1.01;100.00;97724.56;4993136;28;20070;-56
2022/02/12 07:59:14;;;;;;;14.00;9.30;;;;;;;1.02;100.00;97720.22;4985774;28;20096;-56
2022/02/12 08:01:42;;;;;;;15.95;9.85;;;;;;;1.05;100.00;97720.13;4986770;28;20081;-55
2022/02/12 08:04:13;;;;;;;18.40;10.27;;;;;;;1.41;100.00;97716.19;4991101;28;20066;-59
2022/02/12 08:09:29;;;;;;;9.65;8.50;;;;;;;1.13;100.00;97713.72;4985235;28;20084;-57
2022/02/12 08:12:06;;;;;;;15.65;9.43;;;;;;;1.30;100.00;97709.66;4968725;28;20101;-55
2022/02/12 08:14:35;;;;;;;13.73;8.70;;;;;;;1.27;100.00;97713.22;4963665;28;20105;-55
2022/02/12 08:17:04;;;;;;;14.93;10.02;;;;;;;1.56;100.00;97698.31;4965571;28;20071;-54
2022/02/12 08:19:32;;;;;;;20.42;10.32;;;;;;;1.54;100.00;97705.31;4973498;28;20638;-54
2022/02/12 08:22:08;;;;;;;11.27;8.75;;;;;;;1.50;100.00;97706.34;4984317;28;20073;-54
2022/02/12 08:24:36;;;;;;;14.30;10.32;;;;;;;1.81;100.00;97698.19;4987504;28;20089;-54
2022/02/12 08:27:05;;;;;;;15.57;9.32;;;;;;;1.86;100.00;97699.72;4988921;28;20078;-54
2022/02/12 08:29:34;;;;;;;15.57;9.95;;;;;;;2.06;100.00;97701.50;4988798;28;20061;-59
2022/02/12 08:32:03;;;;;;;13.80;9.55;;;;;;;1.92;100.00;97698.63;4991580;28;20074;-55
2022/02/12 08:34:31;;;;;;;13.90;10.10;;;;;;;2.52;100.00;97693.59;4975366;28;20069;-51
2022/02/12 08:37:00;;;;;;;15.98;9.75;;;;;;;2.22;100.00;97695.69;4965493;28;20073;-55
2022/02/12 08:39:30;;;;;;;19.40;11.43;;;;;;;2.78;100.00;97695.06;4964921;28;20085;-58
2022/02/12 08:42:04;;;;;;;17.25;11.40;;;;;;;2.40;100.00;97697.53;4989613;28;20108;-52
2022/02/12 08:44:33;;;;;;;16.50;11.63;;;;;;;2.56;100.00;97695.97;4985758;28;20074;-52
2022/02/12 08:47:02;;;;;;;16.10;10.43;;;;;;;2.85;100.00;97693.88;4990397;28;20087;-54
2022/02/12 08:49:31;;;;;;;18.52;12.38;;;;;;;2.69;100.00;97678.09;4987902;28;20080;-57
2022/02/12 08:52:00;;;;;;;22.33;12.30;;;;;;;2.66;100.00;97677.38;4986049;28;20069;-54
2022/02/12 08:54:29;;;;;;;13.45;9.38;;;;;;;2.74;100.00;97672.66;4985477;28;20042;-55
2022/02/12 08:56:58;;;;;;;14.68;10.02;;;;;;;2.95;100.00;97663.91;4990840;28;20074;-53
2022/02/12 08:59:26;;;;;;;22.10;10.80;;;;;;;3.12;100.00;97663.16;4995512;28;20077;-56
2022/02/12 09:02:10;;;;;;;20.42;11.00;;;;;;;3.56;100.00;97653.28;4984670;28;20101;-52
2022/02/12 09:04:39;;;;;;;17.38;9.38;;;;;;;3.12;100.00;97652.72;4988009;28;20532;-58
2022/02/12 09:07:07;;;;;;;16.20;11.00;;;;;;;3.09;100.00;97645.88;4986187;28;20090;-54
2022/02/12 09:09:38;;;;;;;13.02;9.38;;;;;;;3.33;100.00;97653.50;4986573;28;20089;-56
2022/02/12 09:12:06;;;;;;;;;;;;;;;3.59;100.00;97635.81;4970367;28;20071;-51
2022/02/12 09:14:35;;;;;;;13.55;9.48;;;;;;;3.60;100.00;97642.72;4986299;28;19984;-54
2022/02/12 09:17:05;;;;;;;17.35;10.05;;;;;;;3.78;100.00;97636.63;4974576;28;20449;-56
2022/02/12 09:19:34;;;;;;;15.93;10.37;;;;;;;3.55;100.00;97635.97;4961350;28;20450;-54
2022/02/12 09:22:03;;;;;;;16.15;9.73;;;;;;;3.73;100.00;97622.97;4963069;28;20461;-59
2022/02/12 09:24:31;;;;;;;14.63;9.52;;;;;;;4.04;100.00;97623.16;4962458;28;20085;-54
2022/02/12 09:27:01;;;;;;;16.73;10.18;;;;;;;3.93;100.00;97617.63;4990083;28;20061;-52
2022/02/12 09:29:29;;;;;;;13.20;9.23;;;;;;;4.16;100.00;97619.09;4992376;28;20073;-58
2022/02/12 09:31:58;;;;;;;17.13;9.05;;;;;;;4.38;100.00;97613.63;4994348;28;20520;-53
2022/02/12 09:34:27;;;;;;;15.57;9.90;;;;;;;4.40;100.00;97614.38;4995457;28;20074;-53
2022/02/12 09:36:56;;;;;;;13.80;10.10;;;;;;;3.90;100.00;97604.72;4986399;28;20066;-54
2022/02/12 09:39:24;;;;;;;15.98;9.70;;;;;;;4.18;100.00;97596.38;4989287;28;20098;-54
2022/02/12 09:41:54;;;;;;;14.38;8.73;;;;;;;4.53;100.00;97593.72;4996086;28;20070;-53
2022/02/12 09:44:23;;;;;;;11.75;7.88;;;;;;;4.00;100.00;97595.53;4992338;28;20111;-56
2022/02/12 09:47:26;;;;;;;9.93;7.57;;;;;;;4.21;100.00;97598.81;4981910;28;20472;-52
2022/02/12 09:49:57;;;;;;;13.15;8.02;;;;;;;4.56;100.00;97600.56;4963029;28;20078;-51
2022/02/12 09:52:30;;;;;;;13.07;8.13;;;;;;;4.59;100.00;97593.41;4972231;28;20066;-53
2022/02/12 09:54:59;;;;;;;14.32;8.50;;;;;;;4.43;100.00;97584.66;4974802;28;20059;-53
2022/02/12 09:57:28;;;;;;;10.90;7.55;;;;;;;4.60;100.00;97595.09;4976463;28;20070;-50
2022/02/12 09:59:59;;;;;;;9.35;6.68;;;;;;;4.85;100.00;97583.34;4966559;28;20458;-53
2022/02/12 10:02:28;;;;;;;9.40;6.50;;;;;;;4.83;100.00;97582.59;4969300;28;20713;-53
2022/02/12 10:05:22;;;;;;;11.23;6.72;;;;;;;4.50;100.00;97581.66;4980072;28;20086;-51
2022/02/12 10:07:51;;;;;;;9.00;6.72;;;;;;;5.02;100.00;97588.50;4985703;28;20082;-51
2022/02/12 10:10:21;;;;;;;7.35;5.93;;;;;;;4.79;100.00;97592.38;5006229;28;20062;-51
2022/02/12 10:12:50;;;;;;;7.78;6.20;;;;;;;4.68;100.00;97597.28;4993421;28;20074;-56
2022/02/12 10:15:29;;;;;;;9.50;6.53;;;;;;;4.97;100.00;97588.75;4991553;28;20085;-49
2022/02/12 10:17:59;;;;;;;10.93;6.68;;;;;;;4.55;100.00;97591.03;4991723;28;21892;-52
2022/02/12 10:20:32;;;;;;;8.17;6.83;;;;;;;5.17;100.00;97579.84;4991159;28;20080;-53
2022/02/12 10:23:06;;;;;;;6.32;5.55;;;;;;;4.69;100.00;97586.78;4993515;28;20062;-49
2022/02/12 10:25:35;;;;;;;10.60;6.32;;;;;;;4.83;100.00;97578.22;4987163;28;20069;-55
2022/02/12 10:28:04;;;;;;;10.82;6.75;;;;;;;5.00;100.00;97579.94;4992382;28;20066;-49
2022/02/12 10:30:35;;;;;;;8.80;6.30;;;;;;;4.93;100.00;97576.78;4986674;28;20093;-51
2022/02/12 10:33:04;;;;;;;;;;;;;;;5.31;100.00;97568.63;4990826;28;20108;-50
2022/02/12 10:35:33;;;;;;;6.97;5.25;;;;;;;4.86;100.00;97578.06;5004364;28;19965;-57
2022/02/12 10:38:04;;;;;;;8.65;5.65;;;;;;;4.90;100.00;97568.28;4993678;28;20386;-53
2022/02/12 10:40:33;;;;;;;8.40;6.50;;;;;;;5.22;100.00;97563.91;4987735;28;20470;-49
2022/02/12 10:43:02;;;;;;;10.05;5.45;;;;;;;5.05;100.00;97556.13;4989007;28;20069;-47
2022/02/12 10:45:32;;;;;;;9.32;7.32;;;;;;;5.14;100.00;97545.19;4993432;28;20097;-53
2022/02/12 10:48:03;;;;;;;7.05;6.10;;;;;;;5.57;100.00;97535.75;4992821;28;20617;-53
2022/02/12 10:50:32;;;;;;;6.50;5.85;;;;;;;5.76;100.00;97535.56;4986644;28;20066;-56
2022/02/12 10:53:03;;;;;;;9.10;6.00;;;;;;;5.27;100.00;97533.13;4986929;28;20081;-47
2022/02/12 10:55:35;;;;;;;7.22;5.70;;;;;;;5.14;100.00;97521.66;4989137;28;20450;-52
2022/02/12 10:58:05;;;;;;;7.18;5.53;;;;;;;5.30;100.00;97511.16;4993331;28;20496;-50
2022/02/12 11:00:34;;;;;;;7.93;4.97;;;;;;;5.07;100.00;97502.84;4987409;28;20104;-48
2022/02/12 11:03:09;;;;;;;6.60;5.90;;;;;;;5.20;100.00;97518.72;4990620;28;20124;-50
2022/02/12 11:05:40;;;;;;;8.30;6.30;;;;;;;5.18;100.00;97513.53;4990762;28;20078;-49
2022/02/12 11:08:09;;;;;;;8.65;6.47;;;;;;;5.30;100.00;97512.03;4991307;28;20062;-51
2022/02/12 11:10:38;;;;;;;10.85;6.78;;;;;;;5.65;100.00;97501.34;4988467;28;20465;-50
2022/02/12 11:13:08;;;;;;;7.93;5.85;;;;;;;5.43;100.00;97492.06;4996200;28;20065;-50
2022/02/12 11:15:37;;;;;;;9.63;5.87;;;;;;;5.63;100.00;97490.09;4988905;28;20072;-55
2022/02/12 11:18:14;;;;;;;7.88;6.50;;;;;;;5.32;100.00;97484.00;4990671;28;20895;-49
2022/02/12 11:20:43;;;;;;;8.77;5.85;;;;;;;5.52;100.00;97482.03;4977526;28;20072;-50
2022/02/12 11:23:27;;;;;;;11.63;6.13;;;;;;;5.70;100.00;97473.94;4970616;28;20070;-55
2022/02/12 11:25:57;;;;;;;10.80;7.57;;;;;;;5.81;100.00;97486.41;4983988;28;20497;-51
2022/02/12 11:28:28;;;;;;;11.63;8.00;;;;;;;5.67;100.00;97478.53;4989559;28;20528;-52
2022/02/12 11:31:20;;;;;;;11.02;7.22;;;;;;;5.93;100.00;97472.63;4991446;28;20524;-54
2022/02/12 11:34:09;;;;;;;10.38;7.00;;;;;;;5.80;100.00;97469.03;4982437;28;20065;-54
2022/02/12 11:36:38;;;;;;;10.38;6.93;;;;;;;6.16;100.00;97462.56;4994072;28;20469;-52
2022/02/12 11:39:13;;;;;;;11.30;7.43;;;;;;;5.92;100.00;97464.84;4987763;28;20144;-51
2022/02/12 11:41:42;;;;;;;10.18;6.88;;;;;;;5.92;100.00;97452.63;4991019;28;20721;-49
2022/02/12 11:44:11;;;;;;;8.30;6.00;;;;;;;5.92;100.00;97447.41;4991539;28;20072;-49
2022/02/12 11:47:01;;;;;;;9.50;6.68;;;;;;;5.55;100.00;97426.91;4976365;28;20077;-48